createdAt,value
2018-06-23T00:01:19.489Z,2.57
2018-06-23T00:03:46.633Z,2.33
2018-06-23T00:06:13.768Z,2.63
2018-06-23T00:08:40.919Z,2.70
2018-06-23T00:11:08.059Z,2.47
2018-06-23T00:13:35.189Z,2.90
2018-06-23T00:16:02.258Z,2.27
2018-06-23T00:18:29.452Z,2.23
2018-06-23T00:20:56.585Z,2.43
2018-06-23T00:23:23.708Z,2.60
2018-06-23T00:25:56.546Z,2.80
2018-06-23T00:28:23.712Z,2.07
2018-06-23T00:30:50.875Z,2.80
2018-06-23T00:33:18.007Z,1.83
2018-06-23T00:35:45.120Z,1.87
2018-06-23T00:38:12.281Z,2.70
2018-06-23T00:40:39.420Z,2.20
2018-06-23T00:43:06.538Z,2.60
2018-06-23T00:45:33.661Z,2.43
2018-06-23T00:48:00.782Z,3.60
2018-06-23T00:50:27.925Z,2.73
2018-06-23T00:52:55.045Z,2.60
2018-06-23T00:55:22.183Z,2.83
2018-06-23T00:57:49.263Z,2.80
2018-06-23T01:00:17.500Z,2.93
2018-06-23T01:02:44.641Z,2.57
2018-06-23T01:05:11.753Z,2.60
2018-06-23T01:07:38.868Z,2.27
2018-06-23T01:10:06.200Z,2.30
2018-06-23T01:12:33.356Z,2.70
2018-06-23T01:15:00.479Z,2.97
2018-06-23T01:17:27.624Z,3.00
2018-06-23T01:19:54.744Z,3.50
2018-06-23T01:22:21.953Z,2.40
2018-06-23T01:24:49.120Z,2.60
2018-06-23T01:27:16.291Z,4.73
2018-06-23T01:29:43.455Z,3.20
2018-06-23T01:32:10.615Z,2.97
2018-06-23T01:34:37.712Z,2.07
2018-06-23T01:37:04.836Z,2.20
2018-06-23T01:39:31.984Z,3.50
2018-06-23T01:41:59.135Z,3.00
2018-06-23T01:44:26.473Z,2.90
2018-06-23T01:46:53.575Z,2.90
2018-06-23T01:49:20.719Z,3.33
2018-06-23T01:51:47.864Z,2.50
2018-06-23T01:54:15.046Z,2.17
2018-06-23T01:56:42.184Z,2.83
2018-06-23T01:59:09.372Z,3.20
2018-06-23T02:01:36.601Z,2.40
2018-06-23T02:04:03.920Z,2.47
2018-06-23T02:06:31.124Z,2.50
2018-06-23T02:08:58.251Z,3.00
2018-06-23T02:11:25.408Z,2.37
2018-06-23T02:13:58.393Z,2.60
2018-06-23T02:16:31.268Z,3.23
2018-06-23T02:19:03.968Z,3.20
2018-06-23T02:21:37.035Z,3.20
2018-06-23T02:24:09.825Z,3.10
2018-06-23T02:26:42.832Z,2.97
2018-06-23T02:29:15.791Z,2.63
2018-06-23T02:31:48.518Z,3.80
2018-06-23T02:34:21.594Z,2.90
2018-06-23T02:36:48.772Z,3.00
2018-06-23T02:39:15.868Z,3.20
2018-06-23T02:41:43.004Z,3.37
2018-06-23T02:44:10.155Z,2.90
2018-06-23T02:46:37.337Z,2.63
2018-06-23T02:49:04.588Z,3.60
2018-06-23T02:51:31.703Z,3.20
2018-06-23T02:53:58.852Z,2.57
2018-06-23T02:56:25.973Z,2.50
2018-06-23T02:58:53.116Z,3.10
2018-06-23T03:01:20.332Z,4.07
2018-06-23T03:03:47.512Z,3.30
2018-06-23T03:06:14.637Z,2.40
2018-06-23T03:08:41.761Z,2.80
2018-06-23T03:11:09.236Z,3.20
2018-06-23T03:13:36.376Z,3.50
2018-06-23T03:16:03.567Z,2.90
2018-06-23T03:18:30.646Z,2.70
2018-06-23T03:20:57.815Z,2.87
2018-06-23T03:23:25.036Z,2.90
2018-06-23T03:25:52.191Z,2.67
2018-06-23T03:28:19.381Z,2.40
2018-06-23T03:30:46.830Z,2.73
2018-06-23T03:33:13.984Z,2.60
2018-06-23T03:35:41.144Z,2.90
2018-06-23T03:38:08.336Z,3.23
2018-06-23T03:40:35.545Z,2.70
2018-06-23T03:43:02.710Z,5.27
2018-06-23T03:45:29.825Z,7.07
2018-06-23T03:47:56.964Z,2.93
2018-06-23T03:50:24.133Z,3.53
2018-06-23T03:52:51.333Z,2.87
2018-06-23T03:55:18.460Z,3.10
2018-06-23T03:57:45.581Z,3.10
2018-06-23T04:00:12.831Z,3.30
2018-06-23T04:02:39.985Z,2.30
2018-06-23T04:05:07.125Z,3.27
2018-06-23T04:07:34.497Z,3.30
2018-06-23T04:10:01.658Z,3.43
2018-06-23T04:12:28.808Z,3.40
2018-06-23T04:14:55.921Z,3.60
2018-06-23T04:17:23.136Z,2.97
2018-06-23T04:19:50.368Z,2.70
2018-06-23T04:22:17.520Z,4.20
2018-06-23T04:24:44.671Z,3.87
2018-06-23T04:27:11.904Z,3.60
2018-06-23T04:29:39.016Z,2.93
2018-06-23T04:32:06.162Z,3.00
2018-06-23T04:34:33.285Z,2.80
2018-06-23T04:37:00.480Z,3.33
2018-06-23T04:39:27.652Z,3.07
2018-06-23T04:41:54.792Z,3.70
2018-06-23T04:44:21.908Z,3.20
2018-06-23T04:46:49.035Z,3.93
2018-06-23T04:49:16.180Z,2.73
2018-06-23T04:51:43.401Z,3.80
2018-06-23T04:54:10.543Z,3.50
2018-06-23T04:56:37.705Z,3.10
2018-06-23T04:59:04.832Z,3.00
2018-06-23T05:01:32.091Z,2.63
2018-06-23T05:03:59.164Z,3.13
2018-06-23T05:06:26.274Z,3.33
2018-06-23T05:08:53.452Z,3.20
2018-06-23T05:11:20.620Z,3.30
2018-06-23T05:13:47.733Z,3.40
2018-06-23T05:16:14.863Z,3.43
2018-06-23T05:18:42.056Z,3.20
2018-06-23T05:21:09.191Z,3.30
2018-06-23T05:23:36.347Z,3.87
2018-06-23T05:26:03.504Z,3.20
2018-06-23T05:28:30.605Z,3.63
2018-06-23T05:30:57.752Z,4.53
2018-06-23T05:33:24.829Z,4.80
2018-06-23T05:35:52.493Z,4.37
2018-06-23T05:38:19.621Z,4.00
2018-06-23T05:40:46.753Z,3.83
2018-06-23T05:43:13.896Z,4.90
2018-06-23T05:45:41.068Z,4.17
2018-06-23T05:48:08.656Z,3.63
2018-06-23T05:50:35.844Z,4.73
2018-06-23T05:53:03.005Z,4.17
2018-06-23T05:55:30.169Z,4.20
2018-06-23T05:57:57.388Z,4.10
2018-06-23T06:00:24.604Z,3.33
2018-06-23T06:02:51.779Z,3.40
2018-06-23T06:05:19.016Z,3.90
2018-06-23T06:07:46.076Z,5.33
2018-06-23T06:10:13.217Z,3.17
2018-06-23T06:12:40.367Z,3.07
2018-06-23T06:15:08.360Z,3.43
2018-06-23T06:17:38.461Z,3.10
2018-06-23T06:20:08.045Z,2.77
2018-06-23T06:22:36.325Z,2.83
2018-06-23T06:25:04.213Z,2.50
2018-06-23T06:27:31.363Z,2.90
2018-06-23T06:29:58.849Z,2.47
2018-06-23T06:32:26.568Z,3.03
2018-06-23T06:34:53.725Z,2.73
2018-06-23T06:37:20.923Z,2.70
2018-06-23T06:39:48.091Z,2.93
2018-06-23T06:42:15.490Z,2.70
2018-06-23T06:44:42.711Z,3.53
2018-06-23T06:47:11.074Z,3.00
2018-06-23T06:49:38.297Z,2.90
2018-06-23T06:52:05.723Z,2.37
2018-06-23T06:54:32.908Z,3.40
2018-06-23T06:57:00.076Z,2.53
2018-06-23T06:59:27.203Z,3.00
2018-06-23T07:01:54.356Z,2.50
2018-06-23T07:04:21.488Z,2.23
2018-06-23T07:06:48.629Z,3.40
2018-06-23T07:09:15.793Z,2.20
2018-06-23T07:11:43.788Z,2.13
2018-06-23T07:14:10.915Z,2.63
2018-06-23T07:16:38.940Z,2.93
2018-06-23T07:19:06.097Z,2.47
2018-06-23T07:21:33.413Z,2.43
2018-06-23T07:24:01.166Z,2.77
2018-06-23T07:26:28.233Z,2.80
2018-06-23T07:28:55.519Z,3.00
2018-06-23T07:31:22.740Z,2.50
2018-06-23T07:33:50.413Z,2.30
2018-06-23T07:36:17.664Z,2.60
2018-06-23T07:38:44.865Z,2.70
2018-06-23T07:41:11.996Z,2.53
2018-06-23T07:43:39.125Z,2.87
2018-06-23T07:46:06.407Z,2.47
2018-06-23T07:48:33.551Z,2.80
2018-06-23T07:51:00.703Z,2.23
2018-06-23T07:53:28.238Z,2.87
2018-06-23T07:55:55.457Z,2.73
2018-06-23T07:58:22.601Z,2.80
2018-06-23T08:00:49.749Z,2.13
2018-06-23T08:03:16.864Z,2.60
2018-06-23T08:05:44.051Z,2.00
2018-06-23T08:08:11.141Z,2.57
2018-06-23T08:10:38.624Z,2.57
2018-06-23T08:13:06.350Z,2.50
2018-06-23T08:15:33.504Z,2.10
2018-06-23T08:18:00.648Z,2.90
2018-06-23T08:20:27.799Z,2.70
2018-06-23T08:22:54.914Z,2.23
2018-06-23T08:25:22.061Z,2.53
2018-06-23T08:27:49.140Z,2.87
2018-06-23T08:30:16.246Z,2.30
2018-06-23T08:32:43.408Z,2.00
2018-06-23T08:35:10.541Z,2.90
2018-06-23T08:37:37.752Z,2.83
2018-06-23T08:40:04.905Z,2.47
2018-06-23T08:42:32.070Z,2.30
2018-06-23T08:44:59.156Z,1.90
2018-06-23T08:47:33.266Z,2.90
2018-06-23T08:50:00.477Z,1.83
2018-06-23T08:52:27.631Z,1.83
2018-06-23T08:54:54.765Z,2.10
2018-06-23T08:57:21.951Z,2.07
2018-06-23T08:59:49.085Z,2.00
2018-06-23T09:02:16.248Z,6.53
2018-06-23T09:04:43.335Z,3.50
2018-06-23T09:07:10.519Z,1.87
2018-06-23T09:09:37.757Z,2.10
2018-06-23T09:12:04.983Z,1.50
2018-06-23T09:14:32.613Z,2.30
2018-06-23T09:16:59.799Z,1.90
2018-06-23T09:19:26.977Z,3.23
2018-06-23T09:21:54.178Z,1.97
2018-06-23T09:24:21.316Z,2.37
2018-06-23T09:26:48.468Z,1.90
2018-06-23T09:29:15.612Z,1.67
2018-06-23T09:31:42.817Z,1.67
2018-06-23T09:34:09.925Z,1.50
2018-06-23T09:36:37.075Z,1.97
2018-06-23T09:39:06.752Z,1.90
2018-06-23T09:41:33.956Z,2.40
2018-06-23T09:44:01.173Z,1.77
2018-06-23T09:46:28.309Z,1.90
2018-06-23T09:48:55.500Z,1.87
2018-06-23T09:51:22.640Z,1.93
2018-06-23T09:53:49.787Z,1.70
2018-06-23T09:56:16.944Z,1.73
2018-06-23T09:58:44.065Z,1.80
2018-06-23T10:01:11.209Z,1.63
2018-06-23T10:03:38.330Z,2.03
2018-06-23T10:06:05.472Z,1.43
2018-06-23T10:08:32.694Z,2.00
2018-06-23T10:10:59.836Z,1.90
2018-06-23T10:13:26.961Z,1.37
2018-06-23T10:15:54.121Z,1.60
2018-06-23T10:18:21.237Z,2.33
2018-06-23T10:20:48.405Z,2.93
2018-06-23T10:23:15.558Z,2.07
2018-06-23T10:25:42.686Z,1.90
2018-06-23T10:28:09.837Z,1.70
2018-06-23T10:30:36.946Z,2.03
2018-06-23T10:33:04.161Z,3.60
2018-06-23T10:35:31.283Z,1.93
2018-06-23T10:37:58.499Z,1.70
2018-06-23T10:40:25.602Z,2.13
2018-06-23T10:42:52.798Z,2.40
2018-06-23T10:47:53.841Z,3.67
2018-06-23T10:50:20.971Z,1.83
2018-06-23T10:52:48.180Z,1.80
2018-06-23T10:55:15.316Z,2.03
2018-06-23T10:57:42.498Z,2.73
2018-06-23T11:00:09.633Z,2.10
2018-06-23T11:02:36.824Z,2.33
2018-06-23T11:05:04.220Z,1.40
2018-06-23T11:07:31.384Z,1.47
2018-06-23T11:09:58.552Z,1.80
2018-06-23T11:12:25.714Z,2.47
2018-06-23T11:14:53.116Z,2.20
2018-06-23T11:17:20.342Z,2.90
2018-06-23T11:19:47.449Z,2.93
2018-06-23T11:22:14.553Z,1.63
2018-06-23T11:24:48.531Z,2.03
2018-06-23T11:27:15.653Z,2.10
2018-06-23T11:29:43.064Z,2.47
2018-06-23T11:32:10.233Z,1.77
2018-06-23T11:34:37.403Z,2.10
2018-06-23T11:37:04.913Z,2.13
2018-06-23T11:39:32.096Z,2.40
2018-06-23T11:41:59.300Z,1.87
2018-06-23T11:44:26.471Z,2.00
2018-06-23T11:46:53.598Z,2.60
2018-06-23T11:49:20.732Z,1.63
2018-06-23T11:51:47.927Z,1.97
2018-06-23T11:54:15.116Z,2.10
2018-06-23T11:56:42.313Z,1.50
2018-06-23T11:59:09.425Z,1.60
2018-06-23T12:01:36.620Z,1.77
2018-06-23T12:04:03.766Z,1.43
2018-06-23T12:06:30.887Z,2.30
2018-06-23T12:08:58.018Z,2.60
2018-06-23T12:11:25.169Z,1.77
2018-06-23T12:13:52.260Z,1.97
2018-06-23T12:16:19.411Z,1.90
2018-06-23T12:18:46.549Z,1.73
2018-06-23T12:21:13.702Z,1.80
2018-06-23T12:23:40.928Z,2.17
2018-06-23T12:26:08.100Z,2.53
2018-06-23T12:28:35.240Z,1.80
2018-06-23T12:31:02.423Z,1.83
2018-06-23T12:33:29.533Z,1.70
2018-06-23T12:35:56.671Z,2.43
2018-06-23T12:38:23.824Z,2.50
2018-06-23T12:40:50.973Z,2.40
2018-06-23T12:43:18.060Z,1.40
2018-06-23T12:45:45.260Z,1.63
2018-06-23T12:48:12.416Z,2.00
2018-06-23T12:50:39.605Z,1.97
2018-06-23T12:53:06.799Z,2.30
2018-06-23T12:55:33.881Z,2.60
2018-06-23T12:58:01.034Z,2.10
2018-06-23T13:00:28.202Z,2.37
2018-06-23T13:02:55.453Z,2.27
2018-06-23T13:05:22.657Z,1.93
2018-06-23T13:07:49.868Z,1.83
2018-06-23T13:10:17.079Z,1.67
2018-06-23T13:12:44.289Z,1.80
2018-06-23T13:15:11.492Z,1.93
2018-06-23T13:17:38.693Z,2.20
2018-06-23T13:20:05.901Z,1.70
2018-06-23T13:22:33.034Z,1.50
2018-06-23T13:25:00.201Z,2.07
2018-06-23T13:27:27.464Z,1.63
2018-06-23T13:29:54.733Z,2.20
2018-06-23T13:32:21.943Z,1.77
2018-06-23T13:34:49.189Z,1.97
2018-06-23T13:37:16.296Z,1.50
2018-06-23T13:39:43.561Z,1.70
2018-06-23T13:42:10.829Z,1.80
2018-06-23T13:44:37.960Z,2.20
2018-06-23T13:47:05.171Z,2.33
2018-06-23T13:49:32.370Z,2.50
2018-06-23T13:51:59.503Z,2.10
2018-06-23T13:54:26.703Z,2.37
2018-06-23T13:56:53.988Z,2.60
2018-06-23T13:59:21.115Z,2.37
2018-06-23T14:01:48.296Z,2.83
2018-06-23T14:04:15.650Z,3.00
2018-06-23T14:06:42.809Z,3.20
2018-06-23T14:09:11.395Z,2.77
2018-06-23T14:11:38.679Z,2.00
2018-06-23T14:14:05.896Z,2.77
2018-06-23T14:16:33.230Z,2.63
2018-06-23T14:19:00.410Z,2.30
2018-06-23T14:21:27.784Z,2.50
2018-06-23T14:23:54.989Z,2.73
2018-06-23T14:26:22.187Z,2.17
2018-06-23T14:28:49.399Z,2.60
2018-06-23T14:31:16.636Z,2.40
2018-06-23T14:33:43.852Z,2.77
2018-06-23T14:36:11.021Z,1.60
2018-06-23T14:38:38.226Z,2.00
2018-06-23T14:41:05.473Z,2.40
2018-06-23T14:43:32.687Z,2.20
2018-06-23T14:45:59.851Z,2.67
2018-06-23T14:48:27.048Z,2.03
2018-06-23T14:50:54.236Z,2.03
2018-06-23T14:53:21.406Z,2.00
2018-06-23T14:55:48.582Z,1.77
2018-06-23T14:58:15.774Z,2.17
2018-06-23T15:00:42.951Z,2.50
2018-06-23T15:03:10.117Z,2.90
2018-06-23T15:05:37.303Z,2.03
2018-06-23T15:08:16.277Z,2.67
2018-06-23T15:10:55.021Z,2.70
2018-06-23T15:13:22.185Z,2.17
2018-06-23T15:15:49.344Z,2.33
2018-06-23T15:18:16.472Z,2.43
2018-06-23T15:20:43.612Z,2.03
2018-06-23T15:23:11.025Z,1.70
2018-06-23T15:25:38.247Z,2.20
2018-06-23T15:28:05.454Z,2.50
2018-06-23T15:30:32.674Z,1.77
2018-06-23T15:32:59.973Z,2.30
2018-06-23T15:35:27.181Z,2.90
2018-06-23T15:37:54.410Z,2.23
2018-06-23T15:40:21.669Z,1.83
2018-06-23T15:42:49.005Z,3.40
2018-06-23T15:45:16.518Z,3.23
2018-06-23T15:47:44.045Z,2.00
2018-06-23T15:50:11.252Z,2.13
2018-06-23T15:52:39.284Z,2.40
2018-06-23T15:55:06.441Z,2.23
2018-06-23T15:57:33.633Z,2.33
2018-06-23T16:00:00.833Z,1.93
2018-06-23T16:02:28.041Z,2.70
2018-06-23T16:04:58.407Z,2.73
2018-06-23T16:07:26.080Z,2.70
2018-06-23T16:09:53.632Z,2.83
2018-06-23T16:12:21.119Z,3.10
2018-06-23T16:14:48.331Z,2.53
2018-06-23T16:17:15.782Z,2.13
2018-06-23T16:19:43.019Z,3.67
2018-06-23T16:22:10.193Z,2.63
2018-06-23T16:24:37.349Z,2.60
2018-06-23T16:27:04.492Z,3.07
2018-06-23T16:29:31.665Z,2.73
2018-06-23T16:31:58.892Z,2.90
2018-06-23T16:34:26.088Z,2.60
2018-06-23T16:36:53.309Z,2.00
2018-06-23T16:39:20.457Z,2.17
2018-06-23T16:41:47.652Z,2.67
2018-06-23T16:44:14.825Z,3.20
2018-06-23T16:46:42.042Z,1.97
2018-06-23T16:49:09.292Z,2.20
2018-06-23T16:51:36.662Z,2.90
2018-06-23T16:54:03.828Z,1.77
2018-06-23T16:56:31.052Z,1.80
2018-06-23T16:58:58.244Z,1.83
2018-06-23T17:01:25.534Z,2.50
2018-06-23T17:03:52.782Z,1.83
2018-06-23T17:06:19.958Z,2.70
2018-06-23T17:08:47.099Z,2.63
2018-06-23T17:11:14.321Z,2.80
2018-06-23T17:13:41.478Z,2.93
2018-06-23T17:16:08.660Z,3.30
2018-06-23T17:18:35.824Z,3.10
2018-06-23T17:21:03.032Z,3.30
2018-06-23T17:23:30.183Z,3.30
2018-06-23T17:25:57.332Z,3.10
2018-06-23T17:28:24.494Z,3.30
2018-06-23T17:30:51.629Z,4.67
2018-06-23T17:33:18.822Z,3.60
2018-06-23T17:35:45.993Z,4.20
2018-06-23T17:38:13.105Z,3.30
2018-06-23T17:40:40.236Z,3.43
2018-06-23T17:43:07.436Z,4.03
2018-06-23T17:45:34.591Z,4.20
2018-06-23T17:48:01.776Z,3.77
2018-06-23T17:50:28.948Z,3.90
2018-06-23T17:52:56.135Z,3.93
2018-06-23T17:55:23.305Z,3.60
2018-06-23T17:57:50.683Z,4.57
2018-06-23T18:00:17.711Z,3.77
2018-06-23T18:02:45.056Z,4.10
2018-06-23T18:05:12.184Z,3.50
2018-06-23T18:07:39.352Z,3.97
2018-06-23T18:10:06.540Z,4.13
2018-06-23T18:12:33.720Z,4.33
2018-06-23T18:15:00.833Z,5.17
2018-06-23T18:17:27.964Z,3.70
2018-06-23T18:19:55.105Z,3.83
2018-06-23T18:22:22.259Z,3.70
2018-06-23T18:24:49.391Z,3.60
2018-06-23T18:27:16.500Z,3.50
2018-06-23T18:29:43.684Z,4.10
2018-06-23T18:32:10.842Z,3.77
2018-06-23T18:34:37.973Z,3.70
2018-06-23T18:37:05.133Z,3.87
2018-06-23T18:39:32.318Z,3.30
2018-06-23T18:41:59.493Z,3.67
2018-06-23T18:44:26.644Z,3.40
2018-06-23T18:46:54.196Z,4.43
2018-06-23T18:49:21.380Z,3.90
2018-06-23T18:51:48.527Z,3.30
2018-06-23T18:54:15.743Z,3.87
2018-06-23T18:56:42.881Z,4.00
2018-06-23T18:59:10.058Z,4.60
2018-06-23T19:01:37.432Z,4.83
2018-06-23T19:04:04.829Z,3.80
2018-06-23T19:06:32.094Z,3.80
2018-06-23T19:08:59.259Z,4.10
2018-06-23T19:11:26.472Z,3.90
2018-06-23T19:13:53.607Z,3.60
2018-06-23T19:16:20.904Z,4.07
2018-06-23T19:18:48.047Z,3.30
2018-06-23T19:21:15.263Z,3.70
2018-06-23T19:23:42.369Z,4.63
2018-06-23T19:26:09.517Z,3.47
2018-06-23T19:28:36.712Z,3.87
2018-06-23T19:31:03.811Z,3.43
2018-06-23T19:33:31.039Z,3.30
2018-06-23T19:35:58.151Z,3.50
2018-06-23T19:38:25.336Z,3.60
2018-06-23T19:40:52.513Z,3.80
2018-06-23T19:43:19.621Z,3.17
2018-06-23T19:45:46.735Z,3.40
2018-06-23T19:48:13.824Z,3.70
2018-06-23T19:50:40.969Z,3.13
2018-06-23T19:53:08.160Z,3.17
2018-06-23T19:55:35.291Z,3.20
2018-06-23T19:58:02.415Z,3.60
2018-06-23T20:00:29.626Z,4.57
2018-06-23T20:02:56.833Z,4.53
2018-06-23T20:05:24.080Z,3.03
2018-06-23T20:07:51.255Z,3.43
2018-06-23T20:10:18.442Z,3.43
2018-06-23T20:12:45.592Z,3.30
2018-06-23T20:15:12.865Z,5.20
2018-06-23T20:17:40.077Z,3.63
2018-06-23T20:20:07.315Z,4.87
2018-06-23T20:22:34.511Z,3.30
2018-06-23T20:25:01.788Z,4.13
2018-06-23T20:27:28.932Z,3.70
2018-06-23T20:29:56.505Z,3.20
2018-06-23T20:32:23.813Z,3.63
2018-06-23T20:34:51.005Z,3.87
2018-06-23T20:37:18.176Z,3.10
2018-06-23T20:39:45.351Z,2.73
2018-06-23T20:42:12.516Z,3.60
2018-06-23T20:44:39.720Z,4.40
2018-06-23T20:47:06.829Z,3.70
2018-06-23T20:49:34.035Z,3.60
2018-06-23T20:52:01.576Z,3.10
2018-06-23T20:54:29.012Z,3.70
2018-06-23T20:56:56.296Z,3.83
2018-06-23T20:59:23.463Z,3.13
2018-06-23T21:01:50.620Z,3.50
2018-06-23T21:04:17.844Z,3.90
2018-06-23T21:06:45.037Z,4.70
2018-06-23T21:09:12.228Z,3.10
2018-06-23T21:11:39.476Z,4.07
2018-06-23T21:14:06.969Z,4.10
2018-06-23T21:16:34.200Z,3.70
2018-06-23T21:19:01.478Z,3.73
2018-06-23T21:21:28.751Z,3.37
2018-06-23T21:23:55.996Z,3.87
2018-06-23T21:26:23.355Z,3.47
2018-06-23T21:28:50.566Z,4.53
2018-06-23T21:31:17.700Z,3.53
2018-06-23T21:33:45.004Z,4.03
2018-06-23T21:36:12.181Z,4.37
2018-06-23T21:38:39.383Z,4.00
2018-06-23T21:41:06.763Z,4.10
2018-06-23T21:43:33.943Z,3.47
2018-06-23T21:46:01.111Z,3.70
2018-06-23T21:48:28.246Z,4.30
2018-06-23T21:50:55.420Z,4.10
2018-06-23T21:53:22.595Z,3.63
2018-06-23T21:55:49.783Z,4.03
2018-06-23T21:58:17.649Z,3.90
2018-06-23T22:00:45.325Z,4.17
2018-06-23T22:03:13.536Z,4.13
2018-06-23T22:05:40.785Z,4.80
2018-06-23T22:08:08.475Z,4.30
2018-06-23T22:10:35.737Z,4.83
2018-06-23T22:13:03.184Z,4.43
2018-06-23T22:15:30.412Z,4.00
2018-06-23T22:17:57.554Z,4.03
2018-06-23T22:20:24.801Z,4.53
2018-06-23T22:22:52.406Z,4.53
2018-06-23T22:25:19.878Z,3.97
2018-06-23T22:27:47.070Z,5.00
2018-06-23T22:30:14.418Z,4.33
2018-06-23T22:32:41.644Z,4.50
2018-06-23T22:35:09.281Z,3.93
2018-06-23T22:37:36.899Z,4.00
2018-06-23T22:40:04.132Z,3.93
2018-06-23T22:42:31.321Z,4.63
2018-06-23T22:44:58.724Z,4.03
2018-06-23T22:47:25.841Z,4.27
2018-06-23T22:49:53.015Z,4.83
2018-06-23T22:52:20.245Z,4.40
2018-06-23T22:54:47.733Z,4.10
2018-06-23T22:57:15.230Z,4.30
2018-06-23T22:59:42.418Z,4.03
2018-06-23T23:02:09.585Z,3.50
2018-06-23T23:04:36.832Z,4.57
2018-06-23T23:07:04.164Z,4.37
2018-06-23T23:09:31.331Z,4.30
2018-06-23T23:11:58.452Z,4.20
2018-06-23T23:14:25.599Z,4.10
2018-06-23T23:16:52.776Z,5.70
2018-06-23T23:19:19.921Z,4.30
2018-06-23T23:21:47.090Z,4.07
2018-06-23T23:24:14.257Z,4.47
2018-06-23T23:26:41.479Z,4.10
2018-06-23T23:29:08.612Z,4.37
2018-06-23T23:31:35.745Z,4.33
2018-06-23T23:34:02.900Z,4.73
2018-06-23T23:36:30.012Z,4.67
2018-06-23T23:38:57.109Z,5.00
2018-06-23T23:41:24.281Z,5.00
2018-06-23T23:43:51.415Z,4.40
2018-06-23T23:46:18.560Z,4.43
2018-06-23T23:48:45.704Z,4.17
2018-06-23T23:51:12.810Z,4.10
2018-06-23T23:53:39.968Z,3.80
2018-06-23T23:56:07.151Z,4.33
2018-06-23T23:58:34.269Z,4.87
